Time;durP1;ratioP1;P1;durP2;ratioP2;P2;SDS_P1;SDS_P2;PMS_P1;PMS_P2;Temp;Humidity;BMP_temperature;BMP_pressure;BME280_temperature;BME280_humidity;BME280_pressure;Samples;Min_cycle;Max_cycle;Signal;HPM_P1;HPM_P2
2022/02/13 00:01:15;;;;;;;8.75;7.85;;;;;;;0.23;100.00;97058.84;4966304;28;20071;-61
2022/02/13 00:03:43;;;;;;;10.82;8.60;;;;;;;0.14;100.00;97055.84;4962472;28;20075;-61
2022/02/13 00:06:11;;;;;;;9.32;7.60;;;;;;;0.22;100.00;97051.16;4966653;28;20078;-58
2022/02/13 00:08:40;;;;;;;9.55;7.30;;;;;;;-0.13;100.00;97058.69;4955429;28;20058;-59
2022/02/13 00:11:16;;;;;;;9.60;7.70;;;;;;;-0.07;100.00;97050.66;4985042;28;20066;-59
2022/02/13 00:14:04;;;;;;;8.65;7.75;;;;;;;-0.22;100.00;97053.03;4970720;28;20565;-60
2022/02/13 00:16:36;;;;;;;11.25;7.90;;;;;;;-0.25;100.00;97046.22;4978242;28;20796;-56
2022/02/13 00:19:04;;;;;;;12.77;7.90;;;;;;;-0.14;100.00;97045.78;4985809;28;20066;-58
2022/02/13 00:21:53;;;;;;;9.90;8.10;;;;;;;-0.39;100.00;97041.63;4987050;28;20074;-57
2022/02/13 00:24:21;;;;;;;11.55;8.88;;;;;;;-0.31;100.00;97046.47;4991503;28;20078;-55
2022/02/13 00:26:51;;;;;;;9.90;7.95;;;;;;;-0.21;100.00;97036.59;4985666;28;21593;-54
2022/02/13 00:29:25;;;;;;;12.48;9.43;;;;;;;-0.27;100.00;97040.28;4972771;28;20070;-57
2022/02/13 00:31:53;;;;;;;12.90;9.32;;;;;;;-0.26;100.00;97036.78;4965532;28;20468;-54
2022/02/13 00:34:22;;;;;;;12.32;9.18;;;;;;;-0.22;100.00;97037.50;4965393;28;20081;-56
2022/02/13 00:36:50;;;;;;;12.43;9.32;;;;;;;-0.25;100.00;97028.94;4965371;28;20533;-55
2022/02/13 00:39:19;;;;;;;13.38;9.52;;;;;;;-0.33;100.00;97038.78;4967396;28;20101;-59
2022/02/13 00:41:47;;;;;;;13.02;9.13;;;;;;;-0.33;100.00;97037.94;4986351;28;20066;-56
2022/02/13 00:44:17;;;;;;;11.52;9.30;;;;;;;-0.41;100.00;97032.22;4991847;28;20070;-54
2022/02/13 00:46:45;;;;;;;13.45;9.00;;;;;;;-0.30;100.00;97025.69;4975150;28;20059;-56
2022/02/13 00:49:14;;;;;;;12.82;9.30;;;;;;;-0.39;100.00;97038.19;4970343;28;20074;-56
2022/02/13 00:51:42;;;;;;;13.20;9.43;;;;;;;-0.28;100.00;97028.22;4966227;28;20109;-56
2022/02/13 00:54:10;;;;;;;11.50;9.23;;;;;;;-0.34;100.00;97024.16;4964228;28;20078;-58
2022/02/13 00:56:39;;;;;;;11.27;8.75;;;;;;;-0.32;100.00;97018.91;4966881;28;20069;-57
2022/02/13 00:59:07;;;;;;;10.68;8.85;;;;;;;-0.37;100.00;97026.03;4973750;28;20082;-57
2022/02/13 01:01:37;;;;;;;13.18;9.00;;;;;;;-0.38;100.00;97025.19;4968396;28;20488;-57
2022/02/13 01:04:06;;;;;;;12.75;9.38;;;;;;;-0.67;100.00;97028.13;4974407;28;20721;-60
2022/02/13 01:06:34;;;;;;;11.13;8.45;;;;;;;-0.98;100.00;97027.59;4981063;28;20079;-59
2022/02/13 01:09:03;;;;;;;11.43;8.50;;;;;;;-1.04;100.00;97029.56;4968943;28;20517;-55
2022/02/13 01:11:31;;;;;;;9.35;8.45;;;;;;;-0.99;100.00;97020.72;4971922;28;20521;-55
2022/02/13 01:14:00;;;;;;;9.77;8.60;;;;;;;-0.95;100.00;97021.47;4974638;28;20549;-59
2022/02/13 01:16:28;;;;;;;9.73;8.25;;;;;;;-0.99;100.00;97014.72;4968008;28;20070;-57
2022/02/13 01:18:59;;;;;;;9.55;8.55;;;;;;;-1.09;100.00;97021.16;4968232;28;20081;-58
2022/02/13 01:21:29;;;;;;;10.68;8.32;;;;;;;-1.09;100.00;97024.59;4974874;28;20117;-55
2022/02/13 01:23:58;;;;;;;10.82;8.65;;;;;;;-1.01;100.00;97017.34;4967127;28;20086;-60
2022/02/13 01:26:26;;;;;;;10.30;8.20;;;;;;;-0.76;100.00;97017.25;4961606;28;20074;-55
2022/02/13 01:28:55;;;;;;;8.90;8.00;;;;;;;-0.86;100.00;97015.94;4986181;28;20066;-59
2022/02/13 01:31:23;;;;;;;10.63;7.70;;;;;;;-0.67;100.00;97018.59;4981931;28;20509;-55
2022/02/13 01:33:52;;;;;;;11.75;7.82;;;;;;;-0.63;100.00;97019.31;4970780;28;20227;-58
2022/02/13 01:36:22;;;;;;;8.95;7.18;;;;;;;-0.52;100.00;97024.91;4997092;28;20086;-61
2022/02/13 01:38:50;;;;;;;8.68;7.43;;;;;;;-0.48;100.00;97013.53;4967693;28;20318;-58
2022/02/13 01:41:18;;;;;;;12.23;8.50;;;;;;;-0.58;100.00;97010.47;4967308;28;20070;-57
2022/02/13 01:43:47;;;;;;;9.30;8.30;;;;;;;-0.47;100.00;97004.84;4964893;28;20077;-58
2022/02/13 01:46:15;;;;;;;9.70;8.00;;;;;;;-0.50;100.00;97005.81;4972608;28;20556;-56
2022/02/13 01:48:44;;;;;;;8.75;7.95;;;;;;;-0.53;100.00;97008.50;4987904;28;20081;-55
2022/02/13 01:51:12;;;;;;;7.47;6.78;;;;;;;-0.37;100.00;97010.47;4985388;28;20093;-59
2022/02/13 01:53:49;;;;;;;8.35;7.20;;;;;;;-0.36;100.00;97005.22;4984197;28;21054;-54
2022/02/13 01:56:18;;;;;;;7.70;7.00;;;;;;;-0.30;100.00;96998.97;4972147;28;20067;-60
2022/02/13 01:58:46;;;;;;;8.57;7.38;;;;;;;-0.27;100.00;97001.41;4979682;28;20070;-58
2022/02/13 02:01:15;;;;;;;8.10;6.50;;;;;;;-0.39;100.00;97005.34;4977716;28;20202;-56
2022/02/13 02:03:45;;;;;;;9.82;8.13;;;;;;;-0.38;100.00;97001.00;4972692;28;20070;-55
2022/02/13 02:06:13;;;;;;;;;;;;;;;-0.36;100.00;96996.63;4995278;28;20072;-55
2022/02/13 02:08:42;;;;;;;12.02;8.93;;;;;;;-0.37;100.00;96988.00;4983800;28;19972;-59
2022/02/13 02:11:12;;;;;;;8.25;7.07;;;;;;;-0.32;100.00;96998.16;4974751;28;20466;-61
2022/02/13 02:13:40;;;;;;;10.15;7.78;;;;;;;-0.37;100.00;96979.41;4970268;28;20093;-62
2022/02/13 02:16:09;;;;;;;8.85;7.63;;;;;;;-0.37;100.00;96992.34;4966512;28;20066;-59
2022/02/13 02:18:37;;;;;;;8.35;7.57;;;;;;;-0.34;100.00;96981.84;4969947;28;20085;-60
2022/02/13 02:21:08;;;;;;;8.02;7.22;;;;;;;-0.51;100.00;96985.16;4974865;28;20085;-59
2022/02/13 02:23:39;;;;;;;8.40;7.47;;;;;;;-0.61;100.00;96986.44;4966298;28;20537;-60
2022/02/13 02:26:08;;;;;;;9.65;7.00;;;;;;;-0.52;100.00;96979.13;4962906;28;20537;-60
2022/02/13 02:28:37;;;;;;;11.57;7.57;;;;;;;-0.60;100.00;96977.75;4980516;28;20062;-60
2022/02/13 02:31:05;;;;;;;7.95;7.15;;;;;;;-0.76;100.00;96978.41;4965350;28;20066;-61
2022/02/13 02:33:34;;;;;;;8.05;7.28;;;;;;;-0.84;100.00;96980.44;4966065;28;20458;-61
2022/02/13 02:36:02;;;;;;;7.85;7.15;;;;;;;-0.69;100.00;96978.97;4963425;28;20071;-59
2022/02/13 02:38:31;;;;;;;7.88;6.78;;;;;;;-0.70;100.00;96985.06;4979890;28;20075;-59
2022/02/13 02:41:01;;;;;;;8.40;7.57;;;;;;;-0.88;100.00;96980.63;4963758;28;20070;-60
2022/02/13 02:43:29;;;;;;;8.90;8.00;;;;;;;-1.06;100.00;96990.81;4975469;28;20089;-60
2022/02/13 02:45:58;;;;;;;8.63;7.50;;;;;;;-0.96;100.00;96988.72;4982234;28;20084;-60
2022/02/13 02:48:26;;;;;;;7.70;7.00;;;;;;;-1.22;100.00;96990.56;4970803;28;20077;-61
2022/02/13 02:50:54;;;;;;;8.40;7.25;;;;;;;-1.26;100.00;96970.91;4972793;28;20115;-59
2022/02/13 02:53:23;;;;;;;7.25;6.55;;;;;;;-1.30;100.00;96991.78;4964772;28;20078;-60
2022/02/13 02:55:51;;;;;;;7.72;6.97;;;;;;;-1.18;100.00;96983.53;4967348;28;20074;-58
2022/02/13 02:58:21;;;;;;;8.80;7.93;;;;;;;-1.62;100.00;96974.88;4975955;28;20065;-58
2022/02/13 03:00:50;;;;;;;7.70;6.90;;;;;;;-1.52;100.00;96982.22;4983085;28;20084;-63
2022/02/13 03:03:19;;;;;;;9.20;7.95;;;;;;;-1.64;100.00;96981.88;4988579;28;20093;-60
2022/02/13 03:05:48;;;;;;;9.95;7.88;;;;;;;-1.52;100.00;96989.16;4986525;28;20478;-61
2022/02/13 03:08:17;;;;;;;8.77;7.68;;;;;;;-1.47;100.00;96982.06;4983503;28;20070;-59
2022/02/13 03:10:46;;;;;;;8.43;7.55;;;;;;;-1.27;100.00;96986.50;4982329;28;20721;-61
2022/02/13 03:13:16;;;;;;;10.85;7.50;;;;;;;-1.24;100.00;96984.63;4981771;28;20083;-62
2022/02/13 03:15:46;;;;;;;10.30;8.35;;;;;;;-1.14;100.00;96986.84;4972816;28;20055;-62
2022/02/13 03:18:17;;;;;;;9.60;8.60;;;;;;;-1.31;100.00;96985.78;4961934;28;20078;-57
2022/02/13 03:20:47;;;;;;;10.15;7.47;;;;;;;-1.17;100.00;96989.53;4963878;28;20070;-60
2022/02/13 03:23:16;;;;;;;12.27;8.10;;;;;;;-1.15;100.00;96987.75;4964105;28;20074;-56
2022/02/13 03:25:45;;;;;;;9.05;8.15;;;;;;;-1.12;100.00;96985.88;4974114;28;20062;-57
2022/02/13 03:28:14;;;;;;;9.32;7.82;;;;;;;-1.13;100.00;96978.19;4976885;28;20681;-58
2022/02/13 03:30:42;;;;;;;8.77;7.97;;;;;;;-1.21;100.00;96984.47;4966149;28;20101;-58
2022/02/13 03:33:12;;;;;;;9.63;8.02;;;;;;;-1.17;100.00;96977.47;4972090;28;20082;-57
2022/02/13 03:35:41;;;;;;;8.48;7.60;;;;;;;-1.12;100.00;96978.13;4969701;28;20498;-59
2022/02/13 03:38:09;;;;;;;9.10;7.97;;;;;;;-1.34;100.00;96972.94;4968018;28;20563;-57
2022/02/13 03:40:38;;;;;;;8.60;7.80;;;;;;;-1.25;100.00;96980.34;4969920;28;20077;-59
2022/02/13 03:43:08;;;;;;;8.07;7.38;;;;;;;-1.25;100.00;96974.31;4964704;28;21049;-59
2022/02/13 03:45:36;;;;;;;8.10;7.40;;;;;;;-1.29;100.00;96975.34;4959116;28;20062;-58
2022/02/13 03:48:05;;;;;;;8.15;7.32;;;;;;;-1.15;100.00;96977.41;4964520;28;20082;-57
2022/02/13 03:50:35;;;;;;;8.25;7.43;;;;;;;-1.10;100.00;96975.44;4962276;28;20101;-61
2022/02/13 03:53:04;;;;;;;8.68;7.88;;;;;;;-1.27;100.00;96969.22;4962699;28;20074;-61
2022/02/13 03:55:32;;;;;;;8.98;8.07;;;;;;;-1.14;100.00;96979.91;4963629;28;20071;-58
2022/02/13 03:58:01;;;;;;;8.43;7.63;;;;;;;-1.14;100.00;96982.50;4965063;28;20067;-57
2022/02/13 04:00:29;;;;;;;9.20;8.10;;;;;;;-1.31;100.00;96975.41;4962771;28;20097;-58
2022/02/13 04:02:58;;;;;;;8.55;7.75;;;;;;;-1.39;100.00;96982.63;4966010;28;20117;-58
2022/02/13 04:05:26;;;;;;;8.40;7.60;;;;;;;-1.72;100.00;96983.00;4964707;28;20079;-60
2022/02/13 04:07:56;;;;;;;8.60;7.78;;;;;;;-1.53;100.00;96972.78;4961808;28;20081;-57
2022/02/13 04:10:25;;;;;;;7.70;6.90;;;;;;;-1.32;100.00;96981.47;4961560;28;20067;-60
2022/02/13 04:12:53;;;;;;;9.70;7.53;;;;;;;-1.60;100.00;96976.50;4960008;28;20067;-57
2022/02/13 04:15:22;;;;;;;8.93;7.88;;;;;;;-1.39;100.00;96976.59;4966886;28;20066;-59
2022/02/13 04:17:50;;;;;;;7.78;7.07;;;;;;;-1.33;100.00;96976.38;4992637;28;20086;-57
2022/02/13 04:20:20;;;;;;;9.02;7.10;;;;;;;-1.44;100.00;96975.03;4968083;28;20090;-59
2022/02/13 04:22:49;;;;;;;7.32;6.72;;;;;;;-1.28;100.00;96966.69;4979490;28;20058;-57
2022/02/13 04:25:21;;;;;;;7.53;6.93;;;;;;;-1.25;100.00;96967.41;4963099;28;20031;-60
2022/02/13 04:27:49;;;;;;;8.05;7.22;;;;;;;-1.35;100.00;96958.31;4975261;28;20074;-61
2022/02/13 04:30:18;;;;;;;7.85;7.05;;;;;;;-1.42;100.00;96961.19;4965837;28;20063;-62
2022/02/13 04:32:46;;;;;;;7.32;6.70;;;;;;;-1.34;100.00;96964.31;4980001;28;20066;-61
2022/02/13 04:35:15;;;;;;;7.75;7.05;;;;;;;-1.27;100.00;96965.78;4965934;28;20069;-57
2022/02/13 04:37:43;;;;;;;8.20;7.40;;;;;;;-1.44;100.00;96959.53;4963200;28;20074;-59
2022/02/13 04:40:12;;;;;;;9.48;7.55;;;;;;;-1.63;100.00;96960.28;4969093;28;20104;-60
2022/02/13 04:42:42;;;;;;;7.72;7.03;;;;;;;-1.63;100.00;96963.69;4979029;28;20086;-57
2022/02/13 04:45:11;;;;;;;8.63;6.95;;;;;;;-1.57;100.00;96960.03;4958703;28;20082;-55
2022/02/13 04:47:40;;;;;;;7.35;6.65;;;;;;;-1.45;100.00;96960.41;4966827;28;20130;-57
2022/02/13 04:50:09;;;;;;;8.02;7.22;;;;;;;-1.32;100.00;96952.19;4968569;28;20066;-57
2022/02/13 04:52:38;;;;;;;7.45;6.55;;;;;;;-1.32;100.00;96950.44;4976237;28;20100;-56
2022/02/13 04:55:06;;;;;;;6.95;6.38;;;;;;;-1.32;100.00;96950.44;4987084;28;20062;-62
2022/02/13 04:57:35;;;;;;;7.30;6.50;;;;;;;-1.53;100.00;96940.91;4985499;28;20085;-59
2022/02/13 05:00:06;;;;;;;7.25;6.55;;;;;;;-1.47;100.00;96940.69;4989150;28;20074;-60
2022/02/13 05:02:35;;;;;;;6.70;6.20;;;;;;;-1.48;100.00;96942.44;4959979;28;20101;-59
2022/02/13 05:05:04;;;;;;;6.35;5.80;;;;;;;-1.69;100.00;96936.34;4971346;28;20516;-59
2022/02/13 05:07:32;;;;;;;7.13;6.45;;;;;;;-1.49;100.00;96938.16;4976974;28;20081;-60
2022/02/13 05:10:01;;;;;;;6.75;6.07;;;;;;;-1.35;100.00;96935.03;4976995;28;20066;-60
2022/02/13 05:12:29;;;;;;;6.90;6.20;;;;;;;-1.33;100.00;96925.47;4959928;28;20081;-58
2022/02/13 05:14:58;;;;;;;6.57;6.05;;;;;;;-1.68;100.00;96927.69;4975353;28;20090;-54
2022/02/13 05:17:27;;;;;;;7.63;6.40;;;;;;;-1.54;100.00;96921.16;4963277;28;20073;-60
2022/02/13 05:19:56;;;;;;;6.32;5.65;;;;;;;-1.40;100.00;96928.38;4977351;28;20065;-58
2022/02/13 05:22:24;;;;;;;6.85;5.85;;;;;;;-1.34;100.00;96926.38;4986447;28;20066;-60
2022/02/13 05:24:53;;;;;;;6.88;6.28;;;;;;;-1.49;100.00;96929.56;4984701;28;20077;-57
2022/02/13 05:27:21;;;;;;;7.13;6.53;;;;;;;-1.69;100.00;96938.94;4986361;28;20066;-59
2022/02/13 05:29:50;;;;;;;6.95;6.35;;;;;;;-1.89;100.00;96925.03;4980125;28;20982;-58
2022/02/13 05:32:18;;;;;;;8.00;6.50;;;;;;;-1.77;100.00;96935.78;4985174;28;20066;-59
2022/02/13 05:34:48;;;;;;;7.53;6.82;;;;;;;-1.72;100.00;96933.00;4986981;28;20073;-60
2022/02/13 05:37:17;;;;;;;7.50;6.82;;;;;;;-1.72;100.00;96931.28;4983055;28;20073;-58
2022/02/13 05:39:45;;;;;;;6.80;6.20;;;;;;;-1.74;100.00;96938.25;4983897;28;20134;-56
2022/02/13 05:42:14;;;;;;;6.97;6.38;;;;;;;-1.71;100.00;96945.91;4963504;28;20474;-60
2022/02/13 05:44:42;;;;;;;7.70;6.60;;;;;;;-1.66;100.00;96943.13;4971915;28;20165;-57
2022/02/13 05:47:11;;;;;;;7.45;6.75;;;;;;;-1.64;100.00;96940.50;4967699;28;20733;-60
2022/02/13 05:49:39;;;;;;;7.22;6.50;;;;;;;-1.65;100.00;96942.25;4968019;28;20453;-58
2022/02/13 05:52:10;;;;;;;6.90;6.22;;;;;;;-1.71;100.00;96945.06;4970924;28;20058;-60
2022/02/13 05:54:38;;;;;;;6.47;5.97;;;;;;;-1.94;100.00;96932.97;4970539;28;20089;-59
2022/02/13 05:57:07;;;;;;;6.97;6.25;;;;;;;-1.90;100.00;96934.53;4973128;28;20089;-57
2022/02/13 05:59:36;;;;;;;6.80;6.22;;;;;;;-2.45;100.00;96933.94;4965802;28;20059;-56
2022/02/13 06:02:05;;;;;;;6.22;5.72;;;;;;;-2.28;100.00;96928.19;4961951;28;20548;-60
2022/02/13 06:04:33;;;;;;;6.30;5.80;;;;;;;-2.13;100.00;96929.38;4962097;28;20077;-59
2022/02/13 06:07:02;;;;;;;6.63;6.03;;;;;;;-1.90;100.00;96934.53;4965156;28;20493;-57
2022/02/13 06:09:31;;;;;;;6.85;6.18;;;;;;;-1.81;100.00;96934.22;4965176;28;20093;-59
2022/02/13 06:12:00;;;;;;;6.90;6.28;;;;;;;-1.74;100.00;96935.66;4987906;28;20094;-59
2022/02/13 06:14:28;;;;;;;7.00;6.30;;;;;;;-1.59;100.00;96929.06;4967787;28;20070;-58
2022/02/13 06:16:57;;;;;;;7.28;6.57;;;;;;;-1.50;100.00;96928.72;4974726;28;20073;-60
2022/02/13 06:19:25;;;;;;;6.80;6.20;;;;;;;-1.63;100.00;96937.00;4969712;28;20058;-58
2022/02/13 06:21:53;;;;;;;7.57;6.85;;;;;;;-1.83;100.00;96932.56;4965880;28;20059;-59
2022/02/13 06:24:23;;;;;;;10.68;6.20;;;;;;;-1.81;100.00;96930.78;4963797;28;20102;-58
2022/02/13 06:26:53;;;;;;;6.88;5.95;;;;;;;-2.11;100.00;96935.34;4964147;28;20479;-59
2022/02/13 06:29:22;;;;;;;7.75;6.00;;;;;;;-2.20;100.00;96934.78;4962207;28;20469;-59
2022/02/13 06:31:50;;;;;;;6.95;6.25;;;;;;;-2.13;100.00;96931.94;4969922;28;20073;-57
2022/02/13 06:34:19;;;;;;;7.47;6.63;;;;;;;-1.99;100.00;96930.56;4973402;28;20066;-58
2022/02/13 06:36:47;;;;;;;7.20;6.60;;;;;;;-2.36;100.00;96937.97;4981415;28;20089;-55
2022/02/13 06:39:16;;;;;;;7.28;6.28;;;;;;;-1.91;100.00;96928.53;4968418;28;20078;-58
2022/02/13 06:41:44;;;;;;;7.25;6.55;;;;;;;-1.75;100.00;96934.00;4967601;28;20108;-58
2022/02/13 06:44:14;;;;;;;7.65;6.97;;;;;;;-1.91;100.00;96925.13;4962167;28;20059;-57
2022/02/13 06:46:43;;;;;;;8.52;5.90;;;;;;;-1.67;100.00;96933.69;4964383;28;20545;-59
2022/02/13 06:49:11;;;;;;;7.22;6.53;;;;;;;-1.58;100.00;96932.47;4959485;28;20077;-57
2022/02/13 06:51:40;;;;;;;7.00;6.30;;;;;;;-1.45;100.00;96933.69;4964997;28;20394;-60
2022/02/13 06:54:08;;;;;;;7.25;6.13;;;;;;;-1.39;100.00;96932.63;4966221;28;20525;-60
2022/02/13 06:56:36;;;;;;;7.72;6.40;;;;;;;-1.46;100.00;96932.88;4958356;28;20117;-59
2022/02/13 06:59:05;;;;;;;7.53;6.82;;;;;;;-1.40;100.00;96930.94;4966317;28;20066;-59
2022/02/13 07:01:35;;;;;;;6.72;6.13;;;;;;;-1.33;100.00;96935.81;4975223;28;20062;-59
2022/02/13 07:04:05;;;;;;;6.15;5.57;;;;;;;-1.05;100.00;96932.13;4987936;28;20724;-58
2022/02/13 07:06:33;;;;;;;6.20;5.70;;;;;;;-0.99;100.00;96930.13;4990701;28;20491;-58
2022/02/13 07:09:02;;;;;;;6.55;6.00;;;;;;;-0.84;100.00;96923.47;4988249;28;20694;-57
2022/02/13 07:11:30;;;;;;;6.03;5.63;;;;;;;-0.63;100.00;96918.31;4985772;28;20696;-60
2022/02/13 07:13:59;;;;;;;6.13;5.63;;;;;;;-0.50;100.00;96920.31;4969808;28;20077;-58
2022/02/13 07:16:29;;;;;;;6.35;5.75;;;;;;;-0.32;100.00;96917.84;4963552;28;20517;-59
2022/02/13 07:18:59;;;;;;;6.60;5.47;;;;;;;-0.36;100.00;96911.94;4968133;28;20069;-60
2022/02/13 07:21:27;;;;;;;5.65;5.13;;;;;;;-0.26;100.00;96912.41;4988583;28;20089;-57
2022/02/13 07:23:55;;;;;;;5.93;5.43;;;;;;;-0.06;100.00;96917.53;4986390;28;20090;-57
2022/02/13 07:26:24;;;;;;;5.55;5.13;;;;;;;0.12;100.00;96913.28;4984635;28;20066;-60
2022/02/13 07:29:01;;;;;;;5.68;5.28;;;;;;;0.15;100.00;96918.31;4985573;28;20081;-56
2022/02/13 07:31:31;;;;;;;6.57;5.32;;;;;;;0.16;100.00;96913.97;4989907;28;20070;-58
2022/02/13 07:34:01;;;;;;;5.30;4.80;;;;;;;0.12;100.00;96912.44;4986842;28;20073;-55
2022/02/13 07:36:30;;;;;;;5.60;5.20;;;;;;;0.31;100.00;96907.22;4985397;28;20101;-52
2022/02/13 07:38:59;;;;;;;156.05;71.28;;;;;;;0.65;100.00;96903.91;4987902;28;20086;-60
2022/02/13 07:41:27;;;;;;;185.10;83.53;;;;;;;0.85;100.00;96898.59;4988230;28;20062;-57
2022/02/13 07:43:56;;;;;;;11.07;10.02;;;;;;;0.84;100.00;96896.94;4984175;28;20084;-59
2022/02/13 07:46:26;;;;;;;8.23;7.50;;;;;;;1.18;100.00;96901.31;4985174;28;20077;-59
2022/02/13 07:48:54;;;;;;;8.00;6.75;;;;;;;1.38;100.00;96892.53;4987364;28;20085;-59
2022/02/13 07:51:26;;;;;;;7.47;6.80;;;;;;;1.56;100.00;96884.69;4988642;28;20085;-61
2022/02/13 07:53:54;;;;;;;7.40;6.88;;;;;;;1.56;100.00;96895.09;4982044;28;20511;-59
2022/02/13 07:56:22;;;;;;;5.55;5.05;;;;;;;1.88;100.00;96886.44;4989107;28;20070;-55
2022/02/13 07:58:52;;;;;;;5.60;5.20;;;;;;;2.07;100.00;96885.50;4983379;28;20078;-58
2022/02/13 08:01:20;;;;;;;4.60;4.30;;;;;;;2.31;100.00;96878.97;4980927;28;20476;-60
2022/02/13 08:03:49;;;;;;;5.05;4.75;;;;;;;2.51;100.00;96880.47;4983014;28;20070;-55
2022/02/13 08:06:19;;;;;;;5.00;4.57;;;;;;;2.73;100.00;96880.13;4985814;28;20093;-58
2022/02/13 08:08:50;;;;;;;4.90;4.60;;;;;;;2.78;100.00;96872.88;4982418;28;20070;-56
2022/02/13 08:11:18;;;;;;;;;;;;;;;2.94;100.00;96862.44;4969161;28;20533;-60
2022/02/13 08:13:47;;;;;;;5.10;4.70;;;;;;;3.16;100.00;96866.41;4961539;28;19965;-61
2022/02/13 08:16:16;;;;;;;4.72;4.32;;;;;;;3.37;100.00;96859.09;4962718;28;20063;-57
2022/02/13 08:18:44;;;;;;;4.50;4.10;;;;;;;3.54;100.00;96856.31;4964589;28;20308;-59
2022/02/13 08:21:12;;;;;;;7.82;4.30;;;;;;;3.65;100.00;96851.31;4963943;28;20082;-61
2022/02/13 08:23:41;;;;;;;5.82;4.60;;;;;;;3.63;100.00;96852.34;4963978;28;20063;-55
2022/02/13 08:26:11;;;;;;;4.30;3.90;;;;;;;3.67;100.00;96857.25;4963207;28;20632;-58
2022/02/13 08:28:40;;;;;;;4.10;3.80;;;;;;;3.71;100.00;96850.94;4961999;28;20078;-60
2022/02/13 08:31:08;;;;;;;4.32;3.92;;;;;;;3.96;100.00;96850.28;4963806;28;20082;-58
2022/02/13 08:33:36;;;;;;;4.90;4.50;;;;;;;4.19;100.00;96848.00;4962888;28;20140;-61
2022/02/13 08:36:05;;;;;;;4.43;3.90;;;;;;;4.33;100.00;96842.75;4965130;28;20081;-58
2022/02/13 08:38:34;;;;;;;6.28;5.68;;;;;;;4.62;100.00;96845.31;4962529;28;20075;-60
2022/02/13 08:41:02;;;;;;;5.20;4.75;;;;;;;4.49;100.00;96838.25;4964459;28;20067;-58
2022/02/13 08:43:32;;;;;;;4.40;4.00;;;;;;;4.86;100.00;96837.66;4962827;28;20069;-57
2022/02/13 08:46:01;;;;;;;6.40;4.20;;;;;;;5.02;100.00;96838.31;4961383;28;20536;-59
2022/02/13 08:48:30;;;;;;;4.38;3.92;;;;;;;4.81;100.00;96834.50;4968295;28;20497;-61
2022/02/13 08:50:58;;;;;;;4.22;3.80;;;;;;;5.35;100.00;96829.19;4987364;28;20082;-60
2022/02/13 08:53:27;;;;;;;4.97;4.40;;;;;;;5.44;100.00;96828.56;4987907;28;20439;-60
2022/02/13 08:55:55;;;;;;;4.75;4.35;;;;;;;5.80;99.62;96834.84;4997742;28;20085;-60
2022/02/13 08:58:23;;;;;;;5.13;4.70;;;;;;;5.54;99.80;96829.63;4986964;28;20058;-57
2022/02/13 09:00:53;;;;;;;4.68;4.28;;;;;;;5.57;98.39;96825.94;4985220;28;20481;-62
2022/02/13 09:03:22;;;;;;;4.70;4.30;;;;;;;5.64;96.09;96822.81;4994578;28;20055;-60
2022/02/13 09:05:50;;;;;;;4.10;3.70;;;;;;;5.79;85.86;96812.22;4986023;28;20453;-60
2022/02/13 09:08:19;;;;;;;4.10;3.80;;;;;;;6.05;80.64;96821.72;4984485;28;20591;-58
2022/02/13 09:10:47;;;;;;;4.20;3.90;;;;;;;5.97;77.64;96812.75;4989576;28;20073;-61
2022/02/13 09:13:18;;;;;;;4.10;3.70;;;;;;;5.56;78.13;96813.81;4999462;28;20551;-59
2022/02/13 09:15:46;;;;;;;4.80;3.90;;;;;;;5.81;81.26;96813.78;4984745;28;20077;-58
2022/02/13 09:18:16;;;;;;;5.53;3.72;;;;;;;6.10;77.77;96810.94;4988881;28;20089;-59
2022/02/13 09:20:47;;;;;;;4.70;4.20;;;;;;;6.40;77.75;96807.91;4968122;28;20070;-60
2022/02/13 09:23:18;;;;;;;6.35;4.40;;;;;;;6.53;82.52;96810.50;4982321;28;20062;-60
2022/02/13 09:25:46;;;;;;;6.22;5.63;;;;;;;6.75;85.13;96804.53;4982378;28;20537;-59
2022/02/13 09:28:16;;;;;;;18.38;14.30;;;;;;;6.89;82.78;96797.31;4987773;28;20062;-60
2022/02/13 09:30:47;;;;;;;24.38;17.33;;;;;;;6.83;82.16;96789.06;4988049;28;20693;-61
2022/02/13 09:33:23;;;;;;;8.18;6.07;;;;;;;6.96;80.68;96791.63;4988703;28;20069;-57
2022/02/13 09:35:52;;;;;;;5.28;4.38;;;;;;;7.09;73.34;96785.34;4986273;28;20408;-57
2022/02/13 09:38:20;;;;;;;7.68;6.85;;;;;;;7.08;73.39;96780.22;4992027;28;20058;-60
2022/02/13 09:40:49;;;;;;;6.32;5.72;;;;;;;7.20;71.92;96778.47;4986994;28;20070;-60
2022/02/13 09:43:21;;;;;;;4.10;3.70;;;;;;;7.24;67.71;96775.50;4985888;28;20070;-61
2022/02/13 09:45:51;;;;;;;;;;;;;;;7.38;71.41;96777.91;4992736;28;20066;-61
2022/02/13 09:48:22;;;;;;;3.63;3.33;;;;;;;7.70;68.26;96771.13;4993123;28;19965;-59
2022/02/13 09:50:51;;;;;;;3.30;3.08;;;;;;;7.65;74.11;96771.50;4989255;28;20554;-59
2022/02/13 09:53:20;;;;;;;3.50;3.20;;;;;;;7.85;77.27;96762.06;4989354;28;20065;-60
2022/02/13 09:55:49;;;;;;;3.42;3.20;;;;;;;7.70;79.30;96769.31;4992318;28;20070;-58
2022/02/13 09:58:19;;;;;;;3.85;3.40;;;;;;;7.84;79.21;96761.25;4985513;28;20488;-59
2022/02/13 10:00:56;;;;;;;3.72;3.42;;;;;;;7.63;77.96;96765.50;4988203;28;20077;-61
2022/02/13 10:03:27;;;;;;;3.70;3.40;;;;;;;7.79;79.41;96752.88;4991517;28;20074;-59
2022/02/13 10:05:57;;;;;;;3.67;3.38;;;;;;;7.36;78.03;96756.22;4992387;28;20563;-61
2022/02/13 10:08:27;;;;;;;4.45;3.25;;;;;;;8.01;79.02;96753.81;4984909;28;20547;-60
2022/02/13 10:11:13;;;;;;;3.70;3.40;;;;;;;8.18;76.01;96755.09;4988577;28;20555;-57
2022/02/13 10:13:53;;;;;;;3.78;3.40;;;;;;;8.32;69.94;96754.81;4992053;28;20066;-58
2022/02/13 10:16:23;;;;;;;3.70;3.40;;;;;;;7.90;65.39;96752.03;4986570;28;20069;-59
2022/02/13 10:18:54;;;;;;;;;;;;;;;8.51;67.80;96739.28;4992945;28;20073;-59
2022/02/13 10:21:40;;;;;;;3.95;3.60;;;;;;;8.05;67.50;96745.56;4993926;28;19975;-59
2022/02/13 10:24:16;;;;;;;6.07;3.50;;;;;;;8.41;70.51;96732.25;4991707;28;20545;-57
2022/02/13 10:26:46;;;;;;;3.58;3.17;;;;;;;8.20;66.94;96733.00;4981636;28;20118;-56
2022/02/13 10:29:14;;;;;;;3.88;3.00;;;;;;;8.77;62.39;96728.41;4969642;28;20085;-53
2022/02/13 10:31:44;;;;;;;4.00;2.90;;;;;;;9.05;58.56;96726.97;4965646;28;20069;-52
2022/02/13 10:34:15;;;;;;;4.13;3.20;;;;;;;8.32;64.32;96721.47;4964420;28;20526;-56
2022/02/13 10:36:45;;;;;;;3.85;3.45;;;;;;;8.74;64.57;96718.13;4969606;28;20077;-58
2022/02/13 10:39:18;;;;;;;3.40;3.10;;;;;;;9.21;63.40;96715.97;4986332;28;20097;-52
2022/02/13 10:41:48;;;;;;;3.47;2.95;;;;;;;9.49;59.32;96715.28;4986718;28;20069;-56
2022/02/13 10:44:17;;;;;;;3.83;3.15;;;;;;;9.26;62.67;96712.00;4986598;28;20540;-56
2022/02/13 10:46:45;;;;;;;4.55;3.50;;;;;;;9.28;63.42;96699.50;4982747;28;20074;-53
2022/02/13 10:49:15;;;;;;;4.13;3.25;;;;;;;9.64;59.67;96697.34;4986300;28;20528;-51
2022/02/13 10:51:44;;;;;;;3.28;3.00;;;;;;;9.58;59.31;96692.59;4985507;28;20146;-54
2022/02/13 10:54:13;;;;;;;5.60;3.33;;;;;;;9.55;60.85;96692.84;4990755;28;20104;-53
2022/02/13 10:56:41;;;;;;;3.38;3.08;;;;;;;9.24;61.74;96681.50;4991017;28;20085;-52
2022/02/13 10:59:11;;;;;;;5.40;3.15;;;;;;;9.05;67.40;96676.97;4974530;28;20559;-54
2022/02/13 11:01:41;;;;;;;3.40;3.07;;;;;;;8.82;64.84;96670.19;4973871;28;20074;-55
2022/02/13 11:04:10;;;;;;;3.30;3.00;;;;;;;9.39;67.12;96664.38;4982973;28;20884;-54
2022/02/13 11:06:40;;;;;;;3.50;3.20;;;;;;;9.20;63.78;96657.25;4966209;28;20113;-51
2022/02/13 11:09:11;;;;;;;3.30;3.00;;;;;;;9.53;70.34;96647.38;4961917;28;20525;-53
2022/02/13 11:11:45;;;;;;;3.78;3.13;;;;;;;9.03;67.09;96647.31;4970175;28;20077;-55
2022/02/13 11:14:36;;;;;;;4.15;3.40;;;;;;;9.58;67.00;96636.47;4975533;28;20145;-56
2022/02/13 11:17:06;;;;;;;3.65;3.28;;;;;;;9.38;66.56;96636.41;4971999;28;20070;-51
2022/02/13 11:19:38;;;;;;;3.65;3.30;;;;;;;9.01;62.66;96631.66;4973612;28;20147;-54
2022/02/13 11:22:08;;;;;;;5.18;3.40;;;;;;;9.18;63.18;96627.59;4982740;28;20561;-54
2022/02/13 11:24:37;;;;;;;4.15;3.65;;;;;;;9.44;72.03;96622.72;4967443;28;20435;-53
2022/02/13 11:27:06;;;;;;;3.97;3.58;;;;;;;9.80;61.60;96615.16;4961609;28;20175;-56
2022/02/13 11:29:51;;;;;;;4.82;3.42;;;;;;;10.32;60.53;96601.78;4969901;28;20070;-54
2022/02/13 11:32:42;;;;;;;3.72;3.42;;;;;;;9.87;58.78;96607.56;4966265;28;20081;-55
2022/02/13 11:35:12;;;;;;;4.38;3.50;;;;;;;10.32;62.50;96597.34;4964201;28;20070;-50
2022/02/13 11:37:44;;;;;;;4.45;3.53;;;;;;;10.82;55.14;96597.16;4963251;28;20066;-54
2022/02/13 11:40:50;;;;;;;4.20;3.53;;;;;;;10.52;56.48;96592.91;4966184;28;20544;-52